createdAt,value
2017-10-10T00:00:56.353Z,0
2017-10-10T00:01:56.402Z,0
2017-10-10T00:02:56.704Z,0
2017-10-10T00:03:56.441Z,0
2017-10-10T00:04:56.997Z,0
2017-10-10T00:05:55.867Z,0
2017-10-10T00:06:56.224Z,0
2017-10-10T00:07:56.573Z,0
2017-10-10T00:08:55.911Z,0
2017-10-10T00:09:56.472Z,0
2017-10-10T00:10:55.753Z,0
2017-10-10T00:11:56.418Z,0
2017-10-10T00:12:56.046Z,0
2017-10-10T00:13:57.639Z,0
2017-10-10T00:14:56.102Z,0
2017-10-10T00:15:56.825Z,0
2017-10-10T00:16:56.894Z,0
2017-10-10T00:17:55.991Z,0
2017-10-10T00:18:56.757Z,0
2017-10-10T00:19:56.519Z,0
2017-10-10T00:20:55.773Z,0
2017-10-10T00:21:56.416Z,0
2017-10-10T00:22:56.711Z,0
2017-10-10T00:23:56.069Z,0
2017-10-10T00:24:58.195Z,0
2017-10-10T00:25:56.337Z,0
2017-10-10T00:26:56.872Z,0
2017-10-10T00:27:56.485Z,0
2017-10-10T00:28:55.925Z,0
2017-10-10T00:29:56.161Z,0
2017-10-10T00:30:57.153Z,0
2017-10-10T00:31:56.760Z,0
2017-10-10T00:32:56.104Z,0
2017-10-10T00:33:56.304Z,0
2017-10-10T00:34:57.205Z,0
2017-10-10T00:35:56.718Z,0
2017-10-10T00:36:56.312Z,0
2017-10-10T00:37:56.791Z,0
2017-10-10T00:38:57.056Z,0
2017-10-10T00:39:57.318Z,0
2017-10-10T00:40:56.907Z,0
2017-10-10T00:41:56.713Z,0
2017-10-10T00:42:56.285Z,0
2017-10-10T00:43:56.855Z,0
2017-10-10T00:44:56.832Z,0
2017-10-10T00:45:56.819Z,0
2017-10-10T00:46:56.813Z,0
2017-10-10T00:47:56.388Z,0
2017-10-10T00:48:56.423Z,0
2017-10-10T00:49:57.135Z,0
2017-10-10T00:50:56.589Z,0
2017-10-10T00:51:56.266Z,0
2017-10-10T00:52:56.324Z,0
2017-10-10T00:53:56.774Z,0
2017-10-10T00:54:56.444Z,0
2017-10-10T00:55:56.506Z,0
2017-10-10T00:56:56.212Z,0
2017-10-10T00:57:56.559Z,0
2017-10-10T00:58:55.874Z,0
2017-10-10T00:59:56.294Z,0
2017-10-10T01:00:56.283Z,0
2017-10-10T01:01:56.686Z,0
2017-10-10T01:02:55.841Z,0
2017-10-10T01:03:56.553Z,0
2017-10-10T01:04:56.213Z,0
2017-10-10T01:05:56.402Z,0
2017-10-10T01:06:56.870Z,0
2017-10-10T01:07:56.048Z,0
2017-10-10T01:08:56.221Z,0
2017-10-10T01:09:56.395Z,0
2017-10-10T01:10:56.553Z,0
2017-10-10T01:11:57.052Z,0
2017-10-10T01:12:56.480Z,0
2017-10-10T01:13:55.883Z,0
2017-10-10T01:14:56.360Z,0
2017-10-10T01:15:56.969Z,0
2017-10-10T01:16:56.473Z,0
2017-10-10T01:17:56.279Z,0
2017-10-10T01:18:56.705Z,0
2017-10-10T01:19:56.552Z,0
2017-10-10T01:20:55.823Z,0
2017-10-10T01:21:56.586Z,0
2017-10-10T01:22:56.187Z,0
2017-10-10T01:23:56.633Z,0
2017-10-10T01:24:56.304Z,0
2017-10-10T01:25:56.579Z,0
2017-10-10T01:26:56.209Z,0
2017-10-10T01:27:57.432Z,0
2017-10-10T01:28:56.050Z,0
2017-10-10T01:29:56.825Z,0
2017-10-10T01:30:56.366Z,0
2017-10-10T01:31:57.160Z,0
2017-10-10T01:32:56.777Z,0
2017-10-10T01:33:56.211Z,0
2017-10-10T01:34:56.864Z,0
2017-10-10T01:35:55.854Z,0
2017-10-10T01:36:56.434Z,0
2017-10-10T01:37:56.121Z,0
2017-10-10T01:38:57.041Z,0
2017-10-10T01:39:56.885Z,0
2017-10-10T01:40:56.187Z,0
2017-10-10T01:41:56.930Z,0
2017-10-10T01:42:56.669Z,0
2017-10-10T01:43:56.990Z,0
2017-10-10T01:44:56.149Z,0
2017-10-10T01:45:56.552Z,0
2017-10-10T01:46:55.983Z,0
2017-10-10T01:47:56.403Z,0
2017-10-10T01:48:55.900Z,0
2017-10-10T01:49:56.526Z,0
2017-10-10T01:50:56.195Z,0
2017-10-10T01:51:57.056Z,0
2017-10-10T01:52:56.819Z,0
2017-10-10T01:53:56.405Z,0
2017-10-10T01:54:56.630Z,0
2017-10-10T01:55:56.531Z,0
2017-10-10T01:56:56.378Z,0
2017-10-10T01:57:56.398Z,0
2017-10-10T01:58:56.681Z,0
2017-10-10T01:59:56.186Z,0
2017-10-10T02:00:56.582Z,0
2017-10-10T02:01:55.956Z,0
2017-10-10T02:02:56.497Z,0
2017-10-10T02:03:56.698Z,0
2017-10-10T02:04:57.117Z,0
2017-10-10T02:05:56.679Z,0
2017-10-10T02:06:56.849Z,0
2017-10-10T02:07:57.221Z,0
2017-10-10T02:08:56.793Z,0
2017-10-10T02:09:56.788Z,0
2017-10-10T02:10:57.534Z,0
2017-10-10T02:11:56.738Z,0
2017-10-10T02:12:56.800Z,0
2017-10-10T02:13:56.394Z,0
2017-10-10T02:14:56.136Z,0
2017-10-10T02:15:57.010Z,0
2017-10-10T02:16:56.960Z,0
2017-10-10T02:17:56.242Z,0
2017-10-10T02:18:56.506Z,0
2017-10-10T02:19:56.152Z,0
2017-10-10T02:20:56.896Z,0
2017-10-10T02:21:56.560Z,0
2017-10-10T02:22:56.282Z,0
2017-10-10T02:23:56.843Z,0
2017-10-10T02:24:56.338Z,0
2017-10-10T02:25:57.594Z,0
2017-10-10T02:26:56.849Z,0
2017-10-10T02:27:56.548Z,0
2017-10-10T02:28:56.181Z,0
2017-10-10T02:29:55.942Z,0
2017-10-10T02:30:56.135Z,0
2017-10-10T02:31:56.302Z,0
2017-10-10T02:32:56.570Z,0
2017-10-10T02:33:56.818Z,0
2017-10-10T02:34:56.794Z,0
2017-10-10T02:35:56.391Z,0
2017-10-10T02:36:56.818Z,0
2017-10-10T02:37:56.520Z,0
2017-10-10T02:38:56.396Z,0
2017-10-10T02:39:57.178Z,0
2017-10-10T02:40:56.264Z,0
2017-10-10T02:41:56.540Z,0
2017-10-10T02:42:56.496Z,0
2017-10-10T02:43:56.482Z,0
2017-10-10T02:44:56.621Z,0
2017-10-10T02:45:56.933Z,0
2017-10-10T02:46:56.252Z,0
2017-10-10T02:47:56.042Z,0
2017-10-10T02:48:56.420Z,0
2017-10-10T02:49:57.720Z,0
2017-10-10T02:50:56.483Z,0
2017-10-10T02:51:56.278Z,0
2017-10-10T02:52:56.387Z,0
2017-10-10T02:53:57.128Z,0
2017-10-10T02:54:56.540Z,0
2017-10-10T02:55:56.003Z,0
2017-10-10T02:56:56.253Z,0
2017-10-10T02:57:56.577Z,0
2017-10-10T02:58:55.931Z,0
2017-10-10T02:59:56.598Z,0
2017-10-10T03:00:56.161Z,0
2017-10-10T03:01:55.908Z,0
2017-10-10T03:02:56.308Z,0
2017-10-10T03:03:56.088Z,0
2017-10-10T03:04:56.614Z,0
2017-10-10T03:05:56.138Z,0
2017-10-10T03:06:55.953Z,0
2017-10-10T03:07:56.504Z,0
2017-10-10T03:08:55.983Z,0
2017-10-10T03:09:56.720Z,0
2017-10-10T03:10:56.033Z,0
2017-10-10T03:11:56.449Z,0
2017-10-10T03:12:56.188Z,0
2017-10-10T03:13:56.447Z,0
2017-10-10T03:14:56.163Z,0
2017-10-10T03:15:56.632Z,0
2017-10-10T03:16:56.050Z,0
2017-10-10T03:17:56.262Z,0
2017-10-10T03:18:56.532Z,0
2017-10-10T03:19:57.070Z,0
2017-10-10T03:20:56.780Z,0
2017-10-10T03:21:56.531Z,0
2017-10-10T03:22:56.010Z,0
2017-10-10T03:23:56.623Z,0
2017-10-10T03:24:55.970Z,0
2017-10-10T03:25:56.521Z,0
2017-10-10T03:26:56.256Z,0
2017-10-10T03:27:56.571Z,0
2017-10-10T03:28:56.046Z,0
2017-10-10T03:29:57.606Z,0
2017-10-10T03:30:55.936Z,0
2017-10-10T03:31:56.759Z,0
2017-10-10T03:32:56.356Z,0
2017-10-10T03:33:56.764Z,0
2017-10-10T03:34:57.410Z,0
2017-10-10T03:35:57.102Z,0
2017-10-10T03:36:56.874Z,0
2017-10-10T03:37:56.041Z,0
2017-10-10T03:38:56.927Z,0
2017-10-10T03:39:56.163Z,0
2017-10-10T03:40:56.781Z,0
2017-10-10T03:41:56.382Z,0
2017-10-10T03:42:56.561Z,0
2017-10-10T03:43:56.339Z,0
2017-10-10T03:44:56.170Z,0
2017-10-10T03:45:57.051Z,0
2017-10-10T03:46:56.789Z,0
2017-10-10T03:47:56.640Z,0
2017-10-10T03:48:56.945Z,0
2017-10-10T03:49:57.253Z,0
2017-10-10T03:50:56.437Z,0
2017-10-10T03:51:56.534Z,0
2017-10-10T03:52:56.751Z,0
2017-10-10T03:53:56.477Z,0
2017-10-10T03:54:56.448Z,0
2017-10-10T03:55:56.335Z,0
2017-10-10T03:56:56.263Z,0
2017-10-10T03:57:58.755Z,0
2017-10-10T03:58:56.729Z,0
2017-10-10T03:59:55.986Z,0
2017-10-10T04:00:56.329Z,0
2017-10-10T04:01:57.101Z,0
2017-10-10T04:02:56.238Z,0
2017-10-10T04:03:56.899Z,0
2017-10-10T04:04:56.678Z,0
2017-10-10T04:05:56.816Z,0
2017-10-10T04:06:56.585Z,0
2017-10-10T04:07:55.966Z,0
2017-10-10T04:08:56.601Z,0
2017-10-10T04:09:56.179Z,0
2017-10-10T04:10:56.564Z,0
2017-10-10T04:11:56.303Z,0
2017-10-10T04:12:55.896Z,0
2017-10-10T04:13:57.238Z,0
2017-10-10T04:14:56.899Z,0
2017-10-10T04:15:56.446Z,0
2017-10-10T04:16:57.061Z,0
2017-10-10T04:17:56.348Z,0
2017-10-10T04:18:57.130Z,0
2017-10-10T04:19:56.282Z,0
2017-10-10T04:20:56.146Z,0
2017-10-10T04:21:56.655Z,0
2017-10-10T04:22:56.483Z,0
2017-10-10T04:23:55.591Z,0
2017-10-10T04:24:55.803Z,0
2017-10-10T04:25:56.207Z,0
2017-10-10T04:26:56.570Z,0
2017-10-10T04:27:56.353Z,0
2017-10-10T04:28:56.765Z,0
2017-10-10T04:29:56.251Z,0
2017-10-10T04:30:56.584Z,0
2017-10-10T04:31:56.202Z,0
2017-10-10T04:32:56.967Z,0
2017-10-10T04:33:57.090Z,0
2017-10-10T04:34:57.107Z,0
2017-10-10T04:35:56.752Z,0
2017-10-10T04:36:56.712Z,0
2017-10-10T04:37:56.004Z,0
2017-10-10T04:38:56.284Z,0
2017-10-10T04:39:57.356Z,0
2017-10-10T04:40:56.957Z,0
2017-10-10T04:41:56.174Z,0
2017-10-10T04:42:56.565Z,0
2017-10-10T04:43:56.285Z,0
2017-10-10T04:44:56.969Z,0
2017-10-10T04:45:56.200Z,0
2017-10-10T04:46:57.035Z,0
2017-10-10T04:47:56.584Z,0
2017-10-10T04:48:57.157Z,0
2017-10-10T04:49:55.972Z,0
2017-10-10T04:50:57.073Z,0
2017-10-10T04:51:56.744Z,0
2017-10-10T04:52:56.458Z,0
2017-10-10T04:53:57.333Z,0
2017-10-10T04:54:56.417Z,0
2017-10-10T04:55:56.281Z,0
2017-10-10T04:56:57.267Z,0
2017-10-10T04:57:56.429Z,0
2017-10-10T04:58:55.982Z,0
2017-10-10T04:59:56.626Z,0
2017-10-10T05:00:56.438Z,0
2017-10-10T05:01:57.078Z,0
2017-10-10T05:02:56.852Z,0
2017-10-10T05:03:56.396Z,0
2017-10-10T05:04:56.720Z,0
2017-10-10T05:05:56.879Z,0
2017-10-10T05:06:57.031Z,0
2017-10-10T05:07:56.392Z,0
2017-10-10T05:08:55.893Z,0
2017-10-10T05:09:56.415Z,0
2017-10-10T05:10:57.145Z,0
2017-10-10T05:11:57.009Z,0
2017-10-10T05:12:56.309Z,0
2017-10-10T05:13:56.717Z,0
2017-10-10T05:14:56.025Z,0
2017-10-10T05:15:56.407Z,0
2017-10-10T05:16:57.176Z,0
2017-10-10T05:17:56.398Z,0
2017-10-10T05:18:57.186Z,0
2017-10-10T05:19:56.644Z,0
2017-10-10T05:20:56.072Z,0
2017-10-10T05:21:56.520Z,0
2017-10-10T05:22:56.345Z,0
2017-10-10T05:23:57.019Z,0
2017-10-10T05:24:56.516Z,0
2017-10-10T05:25:57.384Z,0
2017-10-10T05:28:57.024Z,0
2017-10-10T05:29:56.783Z,0
2017-10-10T05:30:56.511Z,0
2017-10-10T05:31:56.016Z,0
2017-10-10T05:32:56.629Z,0
2017-10-10T05:33:55.889Z,0
2017-10-10T05:34:56.757Z,0
2017-10-10T05:35:56.637Z,0
2017-10-10T05:36:56.496Z,0
2017-10-10T05:37:56.196Z,0
2017-10-10T05:38:55.995Z,0
2017-10-10T05:39:56.774Z,0
2017-10-10T05:40:57.658Z,0
2017-10-10T05:41:56.339Z,0
2017-10-10T05:42:57.121Z,0
2017-10-10T05:43:56.101Z,0
2017-10-10T05:44:56.665Z,0
2017-10-10T05:45:56.391Z,0
2017-10-10T05:46:56.828Z,0
2017-10-10T05:47:56.630Z,0
2017-10-10T05:48:56.390Z,0
2017-10-10T05:49:56.339Z,0
2017-10-10T05:50:57.092Z,0
2017-10-10T05:51:56.376Z,0
2017-10-10T05:52:56.975Z,0
2017-10-10T05:53:56.343Z,0
2017-10-10T05:54:56.862Z,0
2017-10-10T05:56:11.150Z,0
2017-10-10T05:56:56.521Z,0
2017-10-10T05:57:56.016Z,0
2017-10-10T05:58:56.557Z,0
2017-10-10T05:59:56.058Z,0
2017-10-10T06:00:57.173Z,0
2017-10-10T06:01:57.011Z,0
2017-10-10T06:02:56.276Z,1
2017-10-10T06:03:57.134Z,1
2017-10-10T06:04:57.027Z,1
2017-10-10T06:05:56.950Z,1
2017-10-10T06:06:56.567Z,1
2017-10-10T06:07:56.215Z,1
2017-10-10T06:08:56.417Z,1
2017-10-10T06:09:56.856Z,1
2017-10-10T06:10:56.967Z,1
2017-10-10T06:11:56.615Z,2
2017-10-10T06:12:56.679Z,2
2017-10-10T06:13:56.252Z,2
2017-10-10T06:14:56.931Z,2
2017-10-10T06:15:56.951Z,2
2017-10-10T06:16:56.308Z,2
2017-10-10T06:17:56.757Z,2
2017-10-10T06:18:56.809Z,3
2017-10-10T06:19:56.214Z,3
2017-10-10T06:20:57.118Z,3
2017-10-10T06:21:56.735Z,4
2017-10-10T06:22:56.259Z,4
2017-10-10T06:23:56.729Z,5
2017-10-10T06:24:56.455Z,5
2017-10-10T06:25:57.457Z,6
2017-10-10T06:26:56.961Z,7
2017-10-10T06:27:56.742Z,6
2017-10-10T06:28:57.015Z,6
2017-10-10T06:29:56.743Z,6
2017-10-10T06:30:56.069Z,6
2017-10-10T06:31:56.723Z,6
2017-10-10T06:32:56.207Z,6
2017-10-10T06:33:56.459Z,5
2017-10-10T06:34:56.344Z,6
2017-10-10T06:35:56.642Z,6
2017-10-10T06:36:56.361Z,7
2017-10-10T06:37:57.095Z,6
2017-10-10T06:38:56.497Z,6
2017-10-10T06:39:56.443Z,6
2017-10-10T06:40:57.155Z,6
2017-10-10T06:41:56.835Z,5
2017-10-10T06:42:56.885Z,4
2017-10-10T06:43:56.668Z,4
2017-10-10T06:44:56.303Z,5
2017-10-10T06:45:57.620Z,6
2017-10-10T06:46:56.048Z,5
2017-10-10T06:47:57.317Z,6
2017-10-10T06:48:57.100Z,5
2017-10-10T06:49:56.326Z,5
2017-10-10T06:50:56.698Z,5
2017-10-10T06:51:56.402Z,5
2017-10-10T06:52:55.900Z,5
2017-10-10T06:53:56.658Z,6
2017-10-10T06:54:56.289Z,4
2017-10-10T06:55:56.554Z,6
2017-10-10T06:56:56.200Z,7
2017-10-10T06:57:56.511Z,7
2017-10-10T06:58:56.682Z,8
2017-10-10T06:59:56.064Z,7
2017-10-10T07:00:56.888Z,6
2017-10-10T07:01:56.303Z,8
2017-10-10T07:02:56.781Z,7
2017-10-10T07:03:56.074Z,8
2017-10-10T07:04:56.846Z,9
2017-10-10T07:05:56.329Z,9
2017-10-10T07:06:56.704Z,8
2017-10-10T07:07:56.180Z,8
2017-10-10T07:08:57.261Z,9
2017-10-10T07:09:56.811Z,10
2017-10-10T07:10:56.882Z,11
2017-10-10T07:11:56.550Z,13
2017-10-10T07:12:56.607Z,17
2017-10-10T07:13:56.104Z,18
2017-10-10T07:14:57.346Z,23
2017-10-10T07:15:57.283Z,22
2017-10-10T07:16:56.583Z,25
2017-10-10T07:17:56.015Z,26
2017-10-10T07:18:56.883Z,27
2017-10-10T07:19:57.245Z,24
2017-10-10T07:20:57.059Z,26
2017-10-10T07:21:57.006Z,23
2017-10-10T07:22:56.958Z,24
2017-10-10T07:23:56.925Z,25
2017-10-10T07:24:56.262Z,23
2017-10-10T07:25:56.751Z,21
2017-10-10T07:26:56.552Z,19
2017-10-10T07:27:56.141Z,20
2017-10-10T07:28:56.880Z,25
2017-10-10T07:29:56.906Z,25
2017-10-10T07:30:56.382Z,20
2017-10-10T07:31:57.333Z,16
2017-10-10T07:32:57.005Z,18
2017-10-10T07:33:56.714Z,17
2017-10-10T07:34:56.174Z,16
2017-10-10T07:35:57.103Z,15
2017-10-10T07:36:56.729Z,16
2017-10-10T07:37:56.435Z,17
2017-10-10T07:38:57.531Z,17
2017-10-10T07:39:56.977Z,17
2017-10-10T07:40:56.656Z,17
2017-10-10T07:41:56.368Z,18
2017-10-10T07:42:56.948Z,19
2017-10-10T07:43:56.177Z,23
2017-10-10T07:44:56.944Z,20
2017-10-10T07:45:57.194Z,16
2017-10-10T07:46:56.835Z,16
2017-10-10T07:47:56.750Z,17
2017-10-10T07:48:56.303Z,14
2017-10-10T07:49:57.040Z,12
2017-10-10T07:50:57.409Z,13
2017-10-10T07:51:57.137Z,16
2017-10-10T07:52:56.743Z,13
2017-10-10T07:53:56.478Z,12
2017-10-10T07:54:56.112Z,12
2017-10-10T07:55:57.016Z,15
2017-10-10T07:56:56.910Z,15
2017-10-10T07:57:56.773Z,16
2017-10-10T07:58:56.563Z,19
2017-10-10T07:59:56.132Z,17
2017-10-10T08:00:57.095Z,20
2017-10-10T08:01:57.087Z,24
2017-10-10T08:02:56.740Z,30
2017-10-10T08:03:56.727Z,35
2017-10-10T08:04:56.737Z,30
2017-10-10T08:05:56.484Z,27
2017-10-10T08:06:56.582Z,26
2017-10-10T08:07:56.181Z,25
2017-10-10T08:08:56.804Z,31
2017-10-10T08:09:56.961Z,33
2017-10-10T08:10:56.725Z,30
2017-10-10T08:11:56.749Z,28
2017-10-10T08:12:56.691Z,31
2017-10-10T08:13:56.603Z,30
2017-10-10T08:14:56.354Z,30
2017-10-10T08:15:56.836Z,43
2017-10-10T08:16:56.400Z,37
2017-10-10T08:17:57.327Z,33
2017-10-10T08:18:56.996Z,26
2017-10-10T08:19:56.595Z,27
2017-10-10T08:20:56.617Z,30
2017-10-10T08:21:56.846Z,31
2017-10-10T08:22:56.900Z,33
2017-10-10T08:23:56.553Z,40
2017-10-10T08:24:56.150Z,51
2017-10-10T08:25:57.040Z,51
2017-10-10T08:26:56.864Z,61
2017-10-10T08:27:57.247Z,71
2017-10-10T08:28:56.457Z,71
2017-10-10T08:29:57.047Z,91
2017-10-10T08:30:56.705Z,82
2017-10-10T08:31:57.247Z,96
2017-10-10T08:32:56.714Z,77
2017-10-10T08:33:56.510Z,50
2017-10-10T08:34:56.157Z,49
2017-10-10T08:35:57.020Z,49
2017-10-10T08:36:56.646Z,59
2017-10-10T08:37:56.490Z,52
2017-10-10T08:38:56.218Z,41
2017-10-10T08:39:57.241Z,43
2017-10-10T08:40:55.973Z,35
2017-10-10T08:41:56.823Z,46
2017-10-10T08:42:56.586Z,48
2017-10-10T08:43:56.702Z,50
2017-10-10T08:44:56.674Z,39
2017-10-10T08:45:56.678Z,34
2017-10-10T08:46:56.922Z,38
2017-10-10T08:47:56.629Z,49
2017-10-10T08:48:56.700Z,74
2017-10-10T08:49:56.709Z,115
2017-10-10T08:50:56.842Z,102
2017-10-10T08:51:56.612Z,59
2017-10-10T08:52:56.625Z,47
2017-10-10T08:53:57.141Z,46
2017-10-10T08:54:57.043Z,45
2017-10-10T08:55:56.584Z,57
2017-10-10T08:56:56.673Z,60
2017-10-10T08:57:56.363Z,89
2017-10-10T08:58:56.466Z,119
2017-10-10T08:59:56.330Z,133
2017-10-10T09:01:03.902Z,107
2017-10-10T09:01:56.794Z,125
2017-10-10T09:02:57.279Z,139
2017-10-10T09:03:57.241Z,164
2017-10-10T09:04:56.789Z,155
2017-10-10T09:05:56.534Z,172
2017-10-10T09:07:21.923Z,143
2017-10-10T09:08:22.941Z,121
2017-10-10T09:09:22.734Z,118
2017-10-10T09:10:22.472Z,127
2017-10-10T09:11:22.156Z,114
2017-10-10T09:12:23.008Z,88
2017-10-10T09:13:22.897Z,96
2017-10-10T09:14:22.960Z,123
2017-10-10T09:15:22.997Z,108
2017-10-10T09:16:22.904Z,112
2017-10-10T09:17:22.826Z,112
2017-10-10T09:18:23.400Z,93
2017-10-10T09:19:22.892Z,86
2017-10-10T09:20:23.228Z,91
2017-10-10T09:21:23.530Z,73
2017-10-10T09:22:23.194Z,70
2017-10-10T09:23:22.130Z,91
2017-10-10T09:24:23.298Z,79
2017-10-10T09:25:22.999Z,67
2017-10-10T09:26:23.451Z,82
2017-10-10T09:27:22.526Z,61
2017-10-10T09:28:23.216Z,75
2017-10-10T09:29:22.713Z,65
2017-10-10T09:30:22.266Z,81
2017-10-10T09:31:22.766Z,89
2017-10-10T09:32:22.041Z,67
2017-10-10T09:33:23.190Z,59
2017-10-10T09:34:23.341Z,65
2017-10-10T09:35:24.923Z,89
2017-10-10T09:36:22.646Z,107
2017-10-10T09:37:22.291Z,153
2017-10-10T09:38:22.634Z,125
2017-10-10T09:39:22.858Z,120
2017-10-10T09:40:23.829Z,108
2017-10-10T09:41:23.013Z,91
2017-10-10T09:42:22.672Z,79
2017-10-10T09:43:23.160Z,66
2017-10-10T09:44:22.576Z,52
2017-10-10T09:45:22.501Z,70
2017-10-10T09:46:22.215Z,110
2017-10-10T09:47:22.807Z,134
2017-10-10T09:48:22.065Z,137
2017-10-10T09:49:22.693Z,126
2017-10-10T09:50:22.515Z,107
2017-10-10T09:51:22.105Z,109
2017-10-10T09:52:23.195Z,108
2017-10-10T09:53:22.664Z,118
2017-10-10T09:54:22.819Z,133
2017-10-10T09:55:22.576Z,161
2017-10-10T09:56:23.258Z,204
2017-10-10T09:57:23.391Z,160
2017-10-10T09:58:23.001Z,179
2017-10-10T09:59:23.004Z,267
2017-10-10T10:00:22.932Z,222
2017-10-10T10:01:23.067Z,336
2017-10-10T10:02:22.691Z,350
2017-10-10T10:03:22.858Z,352
2017-10-10T10:04:22.839Z,280
2017-10-10T10:05:22.855Z,355
2017-10-10T10:06:22.632Z,234
2017-10-10T10:07:22.623Z,213
2017-10-10T10:08:22.211Z,214
2017-10-10T10:09:22.750Z,208
2017-10-10T10:10:22.466Z,259
2017-10-10T10:11:22.471Z,222
2017-10-10T10:12:22.298Z,237
2017-10-10T10:13:22.686Z,244
2017-10-10T10:14:22.334Z,164
2017-10-10T10:15:22.565Z,163
2017-10-10T10:16:22.221Z,136
2017-10-10T10:17:22.967Z,131
2017-10-10T10:18:23.045Z,134
2017-10-10T10:19:22.175Z,129
2017-10-10T10:20:22.285Z,126
2017-10-10T10:21:22.353Z,104
2017-10-10T10:22:22.295Z,87
2017-10-10T10:23:23.471Z,86
2017-10-10T10:24:22.217Z,101
2017-10-10T10:25:22.006Z,121
2017-10-10T10:26:22.740Z,141
2017-10-10T10:27:22.863Z,168
2017-10-10T10:28:22.854Z,182
2017-10-10T10:29:23.602Z,201
2017-10-10T10:30:24.002Z,204
2017-10-10T10:31:24.226Z,199
2017-10-10T10:32:22.440Z,190
2017-10-10T10:33:21.830Z,193
2017-10-10T10:34:23.389Z,305
2017-10-10T10:35:22.272Z,329
2017-10-10T10:36:22.318Z,277
2017-10-10T10:37:22.606Z,293
2017-10-10T10:38:23.673Z,315
2017-10-10T10:39:22.458Z,242
2017-10-10T10:40:23.510Z,209
2017-10-10T10:41:22.616Z,206
2017-10-10T10:42:22.413Z,200
2017-10-10T10:43:23.255Z,197
2017-10-10T10:44:22.222Z,201
2017-10-10T10:45:23.314Z,203
2017-10-10T10:46:24.319Z,198
2017-10-10T10:47:22.976Z,188
2017-10-10T10:48:23.457Z,177
2017-10-10T10:49:23.039Z,175
2017-10-10T10:50:21.990Z,170
2017-10-10T10:51:23.017Z,169
2017-10-10T10:52:22.685Z,138
2017-10-10T10:53:22.542Z,138
2017-10-10T10:54:22.517Z,158
2017-10-10T10:55:22.534Z,153
2017-10-10T10:56:23.000Z,138
2017-10-10T10:57:23.182Z,138
2017-10-10T10:58:22.299Z,134
2017-10-10T10:59:22.330Z,129
2017-10-10T11:00:22.390Z,122
2017-10-10T11:01:22.321Z,118
2017-10-10T11:02:22.146Z,129
2017-10-10T11:03:22.368Z,126
2017-10-10T11:04:23.500Z,111
2017-10-10T11:05:22.158Z,116
2017-10-10T11:06:22.997Z,119
2017-10-10T11:07:22.930Z,98
2017-10-10T11:08:23.055Z,91
2017-10-10T11:09:22.000Z,128
2017-10-10T11:10:22.036Z,144
2017-10-10T11:11:22.305Z,144
2017-10-10T11:12:22.258Z,151
2017-10-10T11:13:22.128Z,157
2017-10-10T11:14:23.194Z,144
2017-10-10T11:15:23.115Z,137
2017-10-10T11:16:23.321Z,136
2017-10-10T11:17:22.067Z,120
2017-10-10T11:18:23.136Z,115
2017-10-10T11:19:23.381Z,102
2017-10-10T11:20:22.619Z,83
2017-10-10T11:21:22.506Z,72
2017-10-10T11:22:22.305Z,73
2017-10-10T11:23:22.158Z,105
2017-10-10T11:24:21.926Z,159
2017-10-10T11:25:23.011Z,205
2017-10-10T11:26:22.988Z,228
2017-10-10T11:27:23.015Z,228
2017-10-10T11:28:22.725Z,232
2017-10-10T11:29:22.428Z,250
2017-10-10T11:30:22.900Z,242
2017-10-10T11:31:23.357Z,229
2017-10-10T11:32:22.376Z,226
2017-10-10T11:33:22.732Z,196
2017-10-10T11:34:22.557Z,179
2017-10-10T11:35:22.516Z,202
2017-10-10T11:36:22.891Z,206
2017-10-10T11:37:23.483Z,179
2017-10-10T11:38:22.236Z,148
2017-10-10T11:39:22.621Z,136
2017-10-10T11:40:22.436Z,117
2017-10-10T11:41:22.043Z,136
2017-10-10T11:42:22.617Z,130
2017-10-10T11:43:22.595Z,113
2017-10-10T11:44:22.250Z,119
2017-10-10T11:45:22.273Z,135
2017-10-10T11:46:22.917Z,131
2017-10-10T11:47:22.860Z,113
2017-10-10T11:48:22.152Z,109
2017-10-10T11:49:21.851Z,107
2017-10-10T11:50:22.648Z,88
2017-10-10T11:51:22.883Z,98
2017-10-10T11:52:23.188Z,98
2017-10-10T11:53:23.012Z,89
2017-10-10T11:54:23.950Z,91
2017-10-10T11:55:22.467Z,76
2017-10-10T11:56:21.962Z,80
2017-10-10T11:57:23.114Z,98
2017-10-10T11:58:22.690Z,90
2017-10-10T11:59:22.281Z,85
2017-10-10T12:00:22.460Z,89
2017-10-10T12:01:22.321Z,90
2017-10-10T12:02:22.574Z,113
2017-10-10T12:03:22.591Z,103
2017-10-10T12:04:22.060Z,79
2017-10-10T12:05:22.963Z,90
2017-10-10T12:06:23.105Z,84
2017-10-10T12:07:22.687Z,88
2017-10-10T12:08:23.007Z,91
2017-10-10T12:09:22.947Z,84
2017-10-10T12:10:22.942Z,72
2017-10-10T12:11:23.116Z,80
2017-10-10T12:12:23.088Z,71
2017-10-10T12:13:22.109Z,85
2017-10-10T12:14:23.841Z,84
2017-10-10T12:15:22.068Z,77
2017-10-10T12:16:22.732Z,66
2017-10-10T12:17:22.291Z,72
2017-10-10T12:18:22.883Z,77
2017-10-10T12:19:22.922Z,66
2017-10-10T12:20:22.626Z,86
2017-10-10T12:21:22.512Z,102
2017-10-10T12:22:22.205Z,107
2017-10-10T12:23:23.139Z,98
2017-10-10T12:24:22.200Z,86
2017-10-10T12:25:22.943Z,64
2017-10-10T12:26:22.723Z,47
2017-10-10T12:27:22.854Z,34
2017-10-10T12:28:24.037Z,28
2017-10-10T12:29:22.105Z,25
2017-10-10T12:30:21.638Z,28
2017-10-10T12:31:23.504Z,32
2017-10-10T12:32:21.639Z,33
2017-10-10T12:33:22.418Z,40
2017-10-10T12:34:22.463Z,49
2017-10-10T12:35:21.987Z,69
2017-10-10T12:36:22.852Z,85
2017-10-10T12:37:22.315Z,86
2017-10-10T12:38:21.975Z,94
2017-10-10T12:39:23.034Z,112
2017-10-10T12:40:22.746Z,125
2017-10-10T12:41:23.988Z,132
2017-10-10T12:42:24.757Z,128
2017-10-10T12:43:23.443Z,125
2017-10-10T12:44:23.299Z,132
2017-10-10T12:45:24.538Z,126
2017-10-10T12:46:22.200Z,117
2017-10-10T12:47:22.486Z,120
2017-10-10T12:48:22.927Z,123
2017-10-10T12:49:22.040Z,150
2017-10-10T12:50:24.782Z,177
2017-10-10T12:51:22.082Z,176
2017-10-10T12:52:23.322Z,170
2017-10-10T12:53:24.637Z,165
2017-10-10T12:54:22.642Z,153
2017-10-10T12:55:22.591Z,143
2017-10-10T12:56:22.962Z,129
2017-10-10T12:57:22.708Z,119
2017-10-10T12:58:22.645Z,106
2017-10-10T12:59:23.346Z,93
2017-10-10T13:00:22.883Z,87
2017-10-10T13:01:22.531Z,78
2017-10-10T13:02:23.148Z,59
2017-10-10T13:03:22.171Z,53
2017-10-10T13:04:23.245Z,55
2017-10-10T13:05:22.140Z,42
2017-10-10T13:06:22.536Z,51
2017-10-10T13:07:22.437Z,62
2017-10-10T13:08:23.016Z,52
2017-10-10T13:09:23.017Z,58
2017-10-10T13:12:20.766Z,90
2017-10-10T13:13:21.494Z,84
2017-10-10T13:14:21.757Z,84
2017-10-10T13:15:21.940Z,81
2017-10-10T13:16:21.570Z,79
2017-10-10T13:17:21.162Z,77
2017-10-10T13:18:22.684Z,81
2017-10-10T13:19:22.570Z,72
2017-10-10T13:20:20.855Z,69
2017-10-10T13:21:21.507Z,74
2017-10-10T13:22:21.551Z,69
2017-10-10T13:23:20.679Z,51
2017-10-10T13:24:25.521Z,50
2017-10-10T13:25:20.392Z,49
2017-10-10T13:26:23.971Z,65
2017-10-10T13:27:21.188Z,68
2017-10-10T13:28:21.534Z,66
2017-10-10T13:29:23.167Z,61
2017-10-10T13:30:22.281Z,57
2017-10-10T13:31:22.874Z,56
2017-10-10T13:32:20.906Z,50
2017-10-10T13:42:39.564Z,36
2017-10-10T13:43:39.106Z,34
2017-10-10T13:44:41.408Z,34
2017-10-10T13:45:40.571Z,30
2017-10-10T13:46:39.938Z,28
2017-10-10T13:47:39.334Z,31
2017-10-10T13:48:39.613Z,32
2017-10-10T13:49:39.232Z,30
2017-10-10T13:50:39.739Z,32
2017-10-10T13:51:39.109Z,36
2017-10-10T13:52:38.937Z,37
2017-10-10T13:53:39.114Z,36
2017-10-10T13:54:39.234Z,36
2017-10-10T13:55:39.358Z,35
2017-10-10T13:56:38.780Z,38
2017-10-10T13:57:39.232Z,40
2017-10-10T13:58:39.693Z,43
2017-10-10T13:59:40.779Z,46
2017-10-10T14:00:39.494Z,52
2017-10-10T14:02:16.278Z,45
2017-10-10T14:03:17.601Z,41
2017-10-10T14:04:16.851Z,37
2017-10-10T14:05:17.123Z,35
2017-10-10T14:06:17.216Z,35
2017-10-10T14:07:18.341Z,32
2017-10-10T14:08:16.910Z,28
2017-10-10T14:09:17.589Z,23
2017-10-10T14:10:16.889Z,21
2017-10-10T14:11:17.779Z,20
2017-10-10T14:12:16.034Z,19
2017-10-10T14:13:16.102Z,18
2017-10-10T14:14:16.460Z,18
2017-10-10T14:15:16.874Z,17
2017-10-10T14:16:17.403Z,18
2017-10-10T14:17:16.597Z,18
2017-10-10T14:18:17.024Z,17
2017-10-10T14:19:16.170Z,17
2017-10-10T14:20:17.658Z,21
2017-10-10T14:21:16.780Z,19
2017-10-10T14:22:16.524Z,18
2017-10-10T14:23:16.278Z,19
2017-10-10T14:24:16.476Z,16
2017-10-10T14:25:16.779Z,16
2017-10-10T14:26:17.549Z,18
2017-10-10T14:27:16.476Z,18
2017-10-10T14:28:16.688Z,19
2017-10-10T14:29:17.842Z,17
2017-10-10T14:30:16.424Z,19
2017-10-10T14:31:16.803Z,19
2017-10-10T14:32:16.611Z,19
2017-10-10T14:33:16.474Z,19
2017-10-10T14:34:17.006Z,17
2017-10-10T14:35:16.879Z,16
2017-10-10T14:36:17.158Z,18
2017-10-10T14:37:16.740Z,18
2017-10-10T14:38:16.301Z,16
2017-10-10T14:39:16.089Z,16